sensor_id;sensor_type;location;lat;lon;timestamp;P1;durP1;ratioP1;P2;durP2;ratioP2
773;SDS011;370;48.810;9.150;2023-04-30T00:02:07;4.07;;;2.60;;
773;SDS011;370;48.810;9.150;2023-04-30T00:04:34;4.55;;;2.55;;
773;SDS011;370;48.810;9.150;2023-04-30T00:07:01;3.92;;;2.50;;
773;SDS011;370;48.810;9.150;2023-04-30T00:09:28;3.47;;;2.05;;
773;SDS011;370;48.810;9.150;2023-04-30T00:11:55;6.75;;;3.20;;
773;SDS011;370;48.810;9.150;2023-04-30T00:14:22;8.25;;;3.13;;
773;SDS011;370;48.810;9.150;2023-04-30T00:16:48;3.42;;;2.05;;
773;SDS011;370;48.810;9.150;2023-04-30T00:19:16;4.63;;;2.38;;
773;SDS011;370;48.810;9.150;2023-04-30T00:21:43;5.75;;;2.70;;
773;SDS011;370;48.810;9.150;2023-04-30T00:24:10;3.88;;;2.28;;
773;SDS011;370;48.810;9.150;2023-04-30T00:26:37;4.40;;;2.63;;
773;SDS011;370;48.810;9.150;2023-04-30T00:29:04;3.67;;;2.40;;
773;SDS011;370;48.810;9.150;2023-04-30T00:31:31;8.40;;;2.97;;
773;SDS011;370;48.810;9.150;2023-04-30T00:33:57;3.95;;;2.20;;
773;SDS011;370;48.810;9.150;2023-04-30T00:36:25;4.07;;;2.55;;
773;SDS011;370;48.810;9.150;2023-04-30T00:38:52;6.53;;;2.67;;
773;SDS011;370;48.810;9.150;2023-04-30T00:41:19;8.27;;;2.35;;
773;SDS011;370;48.810;9.150;2023-04-30T00:43:47;5.07;;;2.65;;
773;SDS011;370;48.810;9.150;2023-04-30T00:46:14;3.85;;;2.67;;
773;SDS011;370;48.810;9.150;2023-04-30T00:48:41;3.10;;;2.17;;
773;SDS011;370;48.810;9.150;2023-04-30T00:51:08;5.03;;;2.40;;
773;SDS011;370;48.810;9.150;2023-04-30T00:53:37;5.70;;;2.67;;
773;SDS011;370;48.810;9.150;2023-04-30T00:56:06;7.82;;;2.90;;
773;SDS011;370;48.810;9.150;2023-04-30T00:58:34;11.60;;;2.92;;
773;SDS011;370;48.810;9.150;2023-04-30T01:01:01;3.75;;;2.42;;
773;SDS011;370;48.810;9.150;2023-04-30T01:03:29;5.25;;;2.72;;
773;SDS011;370;48.810;9.150;2023-04-30T01:05:55;5.05;;;2.63;;
773;SDS011;370;48.810;9.150;2023-04-30T01:08:22;4.10;;;2.30;;
773;SDS011;370;48.810;9.150;2023-04-30T01:10:52;4.13;;;3.00;;
773;SDS011;370;48.810;9.150;2023-04-30T01:13:28;2.88;;;2.40;;
773;SDS011;370;48.810;9.150;2023-04-30T01:16:02;5.32;;;2.85;;
773;SDS011;370;48.810;9.150;2023-04-30T01:18:38;4.68;;;2.70;;
773;SDS011;370;48.810;9.150;2023-04-30T01:21:09;8.60;;;2.97;;
773;SDS011;370;48.810;9.150;2023-04-30T01:23:41;5.55;;;2.83;;
773;SDS011;370;48.810;9.150;2023-04-30T01:26:20;3.40;;;2.13;;
773;SDS011;370;48.810;9.150;2023-04-30T01:29:01;5.68;;;3.08;;
773;SDS011;370;48.810;9.150;2023-04-30T01:31:29;4.03;;;2.60;;
773;SDS011;370;48.810;9.150;2023-04-30T01:33:56;4.07;;;2.60;;
773;SDS011;370;48.810;9.150;2023-04-30T01:36:29;7.05;;;3.13;;
773;SDS011;370;48.810;9.150;2023-04-30T01:39:06;4.60;;;2.63;;
773;SDS011;370;48.810;9.150;2023-04-30T01:42:01;6.45;;;3.10;;
773;SDS011;370;48.810;9.150;2023-04-30T01:44:42;6.28;;;2.80;;
773;SDS011;370;48.810;9.150;2023-04-30T01:47:20;8.05;;;3.20;;
773;SDS011;370;48.810;9.150;2023-04-30T01:49:56;5.38;;;2.72;;
773;SDS011;370;48.810;9.150;2023-04-30T01:52:35;7.28;;;3.53;;
773;SDS011;370;48.810;9.150;2023-04-30T01:55:07;7.30;;;3.50;;
773;SDS011;370;48.810;9.150;2023-04-30T01:57:40;11.73;;;4.65;;
773;SDS011;370;48.810;9.150;2023-04-30T02:00:14;10.57;;;3.75;;
773;SDS011;370;48.810;9.150;2023-04-30T02:02:42;5.47;;;2.95;;
773;SDS011;370;48.810;9.150;2023-04-30T02:05:08;5.05;;;3.35;;
773;SDS011;370;48.810;9.150;2023-04-30T02:07:36;4.68;;;2.60;;
773;SDS011;370;48.810;9.150;2023-04-30T02:10:05;7.90;;;3.88;;
773;SDS011;370;48.810;9.150;2023-04-30T02:12:33;5.95;;;3.15;;
773;SDS011;370;48.810;9.150;2023-04-30T02:15:00;7.95;;;4.07;;
773;SDS011;370;48.810;9.150;2023-04-30T02:17:29;14.20;;;4.43;;
773;SDS011;370;48.810;9.150;2023-04-30T02:19:56;9.57;;;4.18;;
773;SDS011;370;48.810;9.150;2023-04-30T02:22:23;7.35;;;4.32;;
773;SDS011;370;48.810;9.150;2023-04-30T02:24:50;7.07;;;3.97;;
773;SDS011;370;48.810;9.150;2023-04-30T02:27:19;8.35;;;4.22;;
773;SDS011;370;48.810;9.150;2023-04-30T02:29:46;5.65;;;3.75;;
773;SDS011;370;48.810;9.150;2023-04-30T02:32:13;6.68;;;3.50;;
773;SDS011;370;48.810;9.150;2023-04-30T02:34:42;9.35;;;4.20;;
773;SDS011;370;48.810;9.150;2023-04-30T02:37:09;7.45;;;3.55;;
773;SDS011;370;48.810;9.150;2023-04-30T02:39:36;14.80;;;5.38;;
773;SDS011;370;48.810;9.150;2023-04-30T02:42:02;8.48;;;4.38;;
773;SDS011;370;48.810;9.150;2023-04-30T02:44:30;8.88;;;4.18;;
773;SDS011;370;48.810;9.150;2023-04-30T02:46:57;6.78;;;3.45;;
773;SDS011;370;48.810;9.150;2023-04-30T02:49:24;5.53;;;3.05;;
773;SDS011;370;48.810;9.150;2023-04-30T02:51:53;9.02;;;4.85;;
773;SDS011;370;48.810;9.150;2023-04-30T02:54:19;6.22;;;3.15;;
773;SDS011;370;48.810;9.150;2023-04-30T02:56:46;7.30;;;3.70;;
773;SDS011;370;48.810;9.150;2023-04-30T02:59:13;10.60;;;4.05;;
773;SDS011;370;48.810;9.150;2023-04-30T03:01:40;8.68;;;4.00;;
773;SDS011;370;48.810;9.150;2023-04-30T03:04:07;5.65;;;3.00;;
773;SDS011;370;48.810;9.150;2023-04-30T03:06:33;9.73;;;4.20;;
773;SDS011;370;48.810;9.150;2023-04-30T03:09:02;13.05;;;3.92;;
773;SDS011;370;48.810;9.150;2023-04-30T03:11:28;7.30;;;3.78;;
773;SDS011;370;48.810;9.150;2023-04-30T03:13:55;11.45;;;4.35;;
773;SDS011;370;48.810;9.150;2023-04-30T03:16:22;7.05;;;4.18;;
773;SDS011;370;48.810;9.150;2023-04-30T03:18:49;11.15;;;4.95;;
773;SDS011;370;48.810;9.150;2023-04-30T03:21:15;7.80;;;4.28;;
773;SDS011;370;48.810;9.150;2023-04-30T03:23:43;8.02;;;4.70;;
773;SDS011;370;48.810;9.150;2023-04-30T03:26:11;7.07;;;3.78;;
773;SDS011;370;48.810;9.150;2023-04-30T03:28:38;10.32;;;4.57;;
773;SDS011;370;48.810;9.150;2023-04-30T03:31:05;12.10;;;4.25;;
773;SDS011;370;48.810;9.150;2023-04-30T03:33:32;8.88;;;3.92;;
773;SDS011;370;48.810;9.150;2023-04-30T03:35:58;8.77;;;4.15;;
773;SDS011;370;48.810;9.150;2023-04-30T03:38:25;6.63;;;3.58;;
773;SDS011;370;48.810;9.150;2023-04-30T03:40:52;24.55;;;4.43;;
773;SDS011;370;48.810;9.150;2023-04-30T03:43:21;10.88;;;5.40;;
773;SDS011;370;48.810;9.150;2023-04-30T03:45:47;21.23;;;5.07;;
773;SDS011;370;48.810;9.150;2023-04-30T03:48:14;10.02;;;4.13;;
773;SDS011;370;48.810;9.150;2023-04-30T03:50:41;17.02;;;4.70;;
773;SDS011;370;48.810;9.150;2023-04-30T03:53:08;10.07;;;4.43;;
773;SDS011;370;48.810;9.150;2023-04-30T03:55:34;12.38;;;4.10;;
773;SDS011;370;48.810;9.150;2023-04-30T03:58:01;12.32;;;4.88;;
773;SDS011;370;48.810;9.150;2023-04-30T04:00:29;8.70;;;3.88;;
773;SDS011;370;48.810;9.150;2023-04-30T04:02:56;7.63;;;4.00;;
773;SDS011;370;48.810;9.150;2023-04-30T04:05:24;12.25;;;3.72;;
773;SDS011;370;48.810;9.150;2023-04-30T04:07:51;8.55;;;4.75;;
773;SDS011;370;48.810;9.150;2023-04-30T04:10:17;7.22;;;3.63;;
773;SDS011;370;48.810;9.150;2023-04-30T04:12:44;8.65;;;3.60;;
773;SDS011;370;48.810;9.150;2023-04-30T04:15:11;8.18;;;4.32;;
773;SDS011;370;48.810;9.150;2023-04-30T04:17:39;8.63;;;4.35;;
773;SDS011;370;48.810;9.150;2023-04-30T04:20:07;9.48;;;4.13;;
773;SDS011;370;48.810;9.150;2023-04-30T04:22:34;6.22;;;3.83;;
773;SDS011;370;48.810;9.150;2023-04-30T04:25:01;11.27;;;4.85;;
773;SDS011;370;48.810;9.150;2023-04-30T04:27:28;12.45;;;4.00;;
773;SDS011;370;48.810;9.150;2023-04-30T04:29:54;8.73;;;4.03;;
773;SDS011;370;48.810;9.150;2023-04-30T04:32:21;11.70;;;4.45;;
773;SDS011;370;48.810;9.150;2023-04-30T04:34:50;13.13;;;4.20;;
773;SDS011;370;48.810;9.150;2023-04-30T04:37:18;7.70;;;4.43;;
773;SDS011;370;48.810;9.150;2023-04-30T04:39:45;8.52;;;4.45;;
773;SDS011;370;48.810;9.150;2023-04-30T04:42:12;10.18;;;4.13;;
773;SDS011;370;48.810;9.150;2023-04-30T04:44:40;8.05;;;3.95;;
773;SDS011;370;48.810;9.150;2023-04-30T04:47:07;10.23;;;4.88;;
773;SDS011;370;48.810;9.150;2023-04-30T04:49:36;8.45;;;3.97;;
773;SDS011;370;48.810;9.150;2023-04-30T04:52:04;10.23;;;4.32;;
773;SDS011;370;48.810;9.150;2023-04-30T04:54:31;8.48;;;4.38;;
773;SDS011;370;48.810;9.150;2023-04-30T04:56:58;5.75;;;3.42;;
773;SDS011;370;48.810;9.150;2023-04-30T04:59:27;10.15;;;3.95;;
773;SDS011;370;48.810;9.150;2023-04-30T05:01:53;9.77;;;4.85;;
773;SDS011;370;48.810;9.150;2023-04-30T05:04:20;10.30;;;4.57;;
773;SDS011;370;48.810;9.150;2023-04-30T05:10:02;11.75;;;5.07;;
773;SDS011;370;48.810;9.150;2023-04-30T05:12:28;19.05;;;5.80;;
773;SDS011;370;48.810;9.150;2023-04-30T05:14:55;13.93;;;4.90;;
773;SDS011;370;48.810;9.150;2023-04-30T05:17:23;9.57;;;5.00;;
773;SDS011;370;48.810;9.150;2023-04-30T05:19:50;9.50;;;4.85;;
773;SDS011;370;48.810;9.150;2023-04-30T05:22:18;9.80;;;4.28;;
773;SDS011;370;48.810;9.150;2023-04-30T05:24:45;8.60;;;4.43;;
773;SDS011;370;48.810;9.150;2023-04-30T05:27:13;9.90;;;5.53;;
773;SDS011;370;48.810;9.150;2023-04-30T05:29:40;14.65;;;6.35;;
773;SDS011;370;48.810;9.150;2023-04-30T05:32:07;9.65;;;4.80;;
773;SDS011;370;48.810;9.150;2023-04-30T05:34:34;8.32;;;4.40;;
773;SDS011;370;48.810;9.150;2023-04-30T05:37:01;13.90;;;6.18;;
773;SDS011;370;48.810;9.150;2023-04-30T05:42:37;10.88;;;5.07;;
773;SDS011;370;48.810;9.150;2023-04-30T05:45:05;9.63;;;4.47;;
773;SDS011;370;48.810;9.150;2023-04-30T05:47:32;13.00;;;5.38;;
773;SDS011;370;48.810;9.150;2023-04-30T05:49:59;8.10;;;4.60;;
773;SDS011;370;48.810;9.150;2023-04-30T05:52:26;16.75;;;5.00;;
773;SDS011;370;48.810;9.150;2023-04-30T05:54:52;8.32;;;4.45;;
773;SDS011;370;48.810;9.150;2023-04-30T05:57:19;7.30;;;3.90;;
773;SDS011;370;48.810;9.150;2023-04-30T05:59:47;14.73;;;5.07;;
773;SDS011;370;48.810;9.150;2023-04-30T06:02:14;8.27;;;4.75;;
773;SDS011;370;48.810;9.150;2023-04-30T06:04:41;15.50;;;4.63;;
773;SDS011;370;48.810;9.150;2023-04-30T06:07:08;14.32;;;5.88;;
773;SDS011;370;48.810;9.150;2023-04-30T06:09:34;11.23;;;4.82;;
773;SDS011;370;48.810;9.150;2023-04-30T06:12:01;8.10;;;4.45;;
773;SDS011;370;48.810;9.150;2023-04-30T06:14:28;7.95;;;4.30;;
773;SDS011;370;48.810;9.150;2023-04-30T06:16:57;13.23;;;4.75;;
773;SDS011;370;48.810;9.150;2023-04-30T06:19:23;8.00;;;4.57;;
773;SDS011;370;48.810;9.150;2023-04-30T06:21:50;10.27;;;4.32;;
773;SDS011;370;48.810;9.150;2023-04-30T06:24:17;6.60;;;4.03;;
773;SDS011;370;48.810;9.150;2023-04-30T06:26:44;10.00;;;4.05;;
773;SDS011;370;48.810;9.150;2023-04-30T06:29:11;10.97;;;4.50;;
773;SDS011;370;48.810;9.150;2023-04-30T06:31:37;9.05;;;4.70;;
773;SDS011;370;48.810;9.150;2023-04-30T06:34:05;7.80;;;4.35;;
773;SDS011;370;48.810;9.150;2023-04-30T06:36:33;10.07;;;5.53;;
773;SDS011;370;48.810;9.150;2023-04-30T06:38:59;17.37;;;4.90;;
773;SDS011;370;48.810;9.150;2023-04-30T06:41:27;11.50;;;3.87;;
773;SDS011;370;48.810;9.150;2023-04-30T06:43:54;8.70;;;5.10;;
773;SDS011;370;48.810;9.150;2023-04-30T06:46:20;11.57;;;5.97;;
773;SDS011;370;48.810;9.150;2023-04-30T06:48:47;11.47;;;4.20;;
773;SDS011;370;48.810;9.150;2023-04-30T06:51:15;10.63;;;3.75;;
773;SDS011;370;48.810;9.150;2023-04-30T06:53:42;9.33;;;5.17;;
773;SDS011;370;48.810;9.150;2023-04-30T06:56:09;13.10;;;4.70;;
773;SDS011;370;48.810;9.150;2023-04-30T07:01:58;9.13;;;4.73;;
773;SDS011;370;48.810;9.150;2023-04-30T07:04:24;18.63;;;4.50;;
773;SDS011;370;48.810;9.150;2023-04-30T07:06:53;6.20;;;4.47;;
773;SDS011;370;48.810;9.150;2023-04-30T07:09:19;10.77;;;3.60;;
773;SDS011;370;48.810;9.150;2023-04-30T07:11:46;7.27;;;4.40;;
773;SDS011;370;48.810;9.150;2023-04-30T07:14:13;7.77;;;3.80;;
773;SDS011;370;48.810;9.150;2023-04-30T07:16:40;9.67;;;4.40;;
773;SDS011;370;48.810;9.150;2023-04-30T07:19:06;8.40;;;4.40;;
773;SDS011;370;48.810;9.150;2023-04-30T07:21:33;6.40;;;3.77;;
773;SDS011;370;48.810;9.150;2023-04-30T07:24:01;8.67;;;4.30;;
773;SDS011;370;48.810;9.150;2023-04-30T07:26:28;10.07;;;3.73;;
773;SDS011;370;48.810;9.150;2023-04-30T07:28:55;6.87;;;4.73;;
773;SDS011;370;48.810;9.150;2023-04-30T07:31:22;6.90;;;4.70;;
773;SDS011;370;48.810;9.150;2023-04-30T07:33:49;8.93;;;4.40;;
773;SDS011;370;48.810;9.150;2023-04-30T07:36:16;6.50;;;4.40;;
773;SDS011;370;48.810;9.150;2023-04-30T07:38:43;6.97;;;4.00;;
773;SDS011;370;48.810;9.150;2023-04-30T07:41:11;10.57;;;5.00;;
773;SDS011;370;48.810;9.150;2023-04-30T07:43:39;8.10;;;4.00;;
773;SDS011;370;48.810;9.150;2023-04-30T07:46:05;8.90;;;4.33;;
773;SDS011;370;48.810;9.150;2023-04-30T07:48:32;6.87;;;4.00;;
773;SDS011;370;48.810;9.150;2023-04-30T07:50:59;6.63;;;4.30;;
773;SDS011;370;48.810;9.150;2023-04-30T07:53:26;8.03;;;4.43;;
773;SDS011;370;48.810;9.150;2023-04-30T07:55:53;8.10;;;3.93;;
773;SDS011;370;48.810;9.150;2023-04-30T07:58:21;6.67;;;4.03;;
773;SDS011;370;48.810;9.150;2023-04-30T08:00:47;7.40;;;4.43;;
773;SDS011;370;48.810;9.150;2023-04-30T08:03:14;6.23;;;3.83;;
773;SDS011;370;48.810;9.150;2023-04-30T08:05:41;7.03;;;4.27;;
773;SDS011;370;48.810;9.150;2023-04-30T08:08:08;6.00;;;4.13;;
773;SDS011;370;48.810;9.150;2023-04-30T08:10:35;5.60;;;4.10;;
773;SDS011;370;48.810;9.150;2023-04-30T08:13:02;10.37;;;4.90;;
773;SDS011;370;48.810;9.150;2023-04-30T08:15:30;4.73;;;3.57;;
773;SDS011;370;48.810;9.150;2023-04-30T08:17:58;5.77;;;3.60;;
773;SDS011;370;48.810;9.150;2023-04-30T08:20:25;6.10;;;3.63;;
773;SDS011;370;48.810;9.150;2023-04-30T08:22:52;10.53;;;3.30;;
773;SDS011;370;48.810;9.150;2023-04-30T08:25:19;4.90;;;3.90;;
773;SDS011;370;48.810;9.150;2023-04-30T08:27:46;5.23;;;3.37;;
773;SDS011;370;48.810;9.150;2023-04-30T08:30:12;5.20;;;3.47;;
773;SDS011;370;48.810;9.150;2023-04-30T08:32:41;3.27;;;3.00;;
773;SDS011;370;48.810;9.150;2023-04-30T08:35:08;6.03;;;3.30;;
773;SDS011;370;48.810;9.150;2023-04-30T08:37:35;3.90;;;2.73;;
773;SDS011;370;48.810;9.150;2023-04-30T08:40:02;4.77;;;2.90;;
773;SDS011;370;48.810;9.150;2023-04-30T08:42:34;4.93;;;3.27;;
773;SDS011;370;48.810;9.150;2023-04-30T08:45:02;5.10;;;2.80;;
773;SDS011;370;48.810;9.150;2023-04-30T08:47:30;4.77;;;3.20;;
773;SDS011;370;48.810;9.150;2023-04-30T08:49:58;4.73;;;3.70;;
773;SDS011;370;48.810;9.150;2023-04-30T08:52:25;3.30;;;2.83;;
773;SDS011;370;48.810;9.150;2023-04-30T08:54:55;4.60;;;2.53;;
773;SDS011;370;48.810;9.150;2023-04-30T08:57:23;3.63;;;2.97;;
773;SDS011;370;48.810;9.150;2023-04-30T08:59:51;2.57;;;2.30;;
773;SDS011;370;48.810;9.150;2023-04-30T09:02:18;4.33;;;2.70;;
773;SDS011;370;48.810;9.150;2023-04-30T09:04:45;3.67;;;2.60;;
773;SDS011;370;48.810;9.150;2023-04-30T09:07:14;3.00;;;2.53;;
773;SDS011;370;48.810;9.150;2023-04-30T09:09:43;2.57;;;2.33;;
773;SDS011;370;48.810;9.150;2023-04-30T09:12:11;5.33;;;3.17;;
773;SDS011;370;48.810;9.150;2023-04-30T09:14:39;15.13;;;2.70;;
773;SDS011;370;48.810;9.150;2023-04-30T09:17:06;4.50;;;3.07;;
773;SDS011;370;48.810;9.150;2023-04-30T09:19:34;4.17;;;2.70;;
773;SDS011;370;48.810;9.150;2023-04-30T09:22:21;4.13;;;2.60;;
773;SDS011;370;48.810;9.150;2023-04-30T09:24:49;2.97;;;2.17;;
773;SDS011;370;48.810;9.150;2023-04-30T09:27:18;2.70;;;2.20;;
773;SDS011;370;48.810;9.150;2023-04-30T09:29:46;4.20;;;2.00;;
773;SDS011;370;48.810;9.150;2023-04-30T09:32:12;2.37;;;1.93;;
773;SDS011;370;48.810;9.150;2023-04-30T09:34:40;3.00;;;1.93;;
773;SDS011;370;48.810;9.150;2023-04-30T09:37:07;2.07;;;1.73;;
773;SDS011;370;48.810;9.150;2023-04-30T09:39:46;3.10;;;1.87;;
773;SDS011;370;48.810;9.150;2023-04-30T09:42:14;3.30;;;2.50;;
773;SDS011;370;48.810;9.150;2023-04-30T09:44:42;1.33;;;1.20;;
773;SDS011;370;48.810;9.150;2023-04-30T09:47:13;2.13;;;1.97;;
773;SDS011;370;48.810;9.150;2023-04-30T09:49:41;1.87;;;1.67;;
773;SDS011;370;48.810;9.150;2023-04-30T09:52:09;3.90;;;2.07;;
773;SDS011;370;48.810;9.150;2023-04-30T09:54:37;3.90;;;1.73;;
773;SDS011;370;48.810;9.150;2023-04-30T09:57:05;2.10;;;1.93;;
773;SDS011;370;48.810;9.150;2023-04-30T09:59:35;2.77;;;1.80;;
773;SDS011;370;48.810;9.150;2023-04-30T10:02:04;2.20;;;2.00;;
773;SDS011;370;48.810;9.150;2023-04-30T10:04:32;4.50;;;2.73;;
773;SDS011;370;48.810;9.150;2023-04-30T10:07:01;3.77;;;1.90;;
773;SDS011;370;48.810;9.150;2023-04-30T10:09:31;2.43;;;2.23;;
773;SDS011;370;48.810;9.150;2023-04-30T10:12:04;2.43;;;2.27;;
773;SDS011;370;48.810;9.150;2023-04-30T10:14:38;3.13;;;2.50;;
773;SDS011;370;48.810;9.150;2023-04-30T10:17:12;3.07;;;2.20;;
773;SDS011;370;48.810;9.150;2023-04-30T10:19:41;2.53;;;2.17;;
773;SDS011;370;48.810;9.150;2023-04-30T10:22:11;2.13;;;2.00;;
773;SDS011;370;48.810;9.150;2023-04-30T10:24:38;2.40;;;2.00;;
773;SDS011;370;48.810;9.150;2023-04-30T10:27:06;4.60;;;2.10;;
773;SDS011;370;48.810;9.150;2023-04-30T10:29:35;4.83;;;1.90;;
773;SDS011;370;48.810;9.150;2023-04-30T10:32:01;2.47;;;2.23;;
773;SDS011;370;48.810;9.150;2023-04-30T10:34:31;8.43;;;2.43;;
773;SDS011;370;48.810;9.150;2023-04-30T10:37:09;3.00;;;2.10;;
773;SDS011;370;48.810;9.150;2023-04-30T10:39:58;2.00;;;1.90;;
773;SDS011;370;48.810;9.150;2023-04-30T10:42:30;3.07;;;2.10;;
773;SDS011;370;48.810;9.150;2023-04-30T10:51:47;2.47;;;2.27;;
773;SDS011;370;48.810;9.150;2023-04-30T10:54:21;3.80;;;2.53;;
773;SDS011;370;48.810;9.150;2023-04-30T10:56:51;1.87;;;1.77;;
773;SDS011;370;48.810;9.150;2023-04-30T10:59:21;2.37;;;2.20;;
773;SDS011;370;48.810;9.150;2023-04-30T11:01:55;2.80;;;2.20;;
773;SDS011;370;48.810;9.150;2023-04-30T11:04:23;3.30;;;2.30;;
773;SDS011;370;48.810;9.150;2023-04-30T11:06:54;4.40;;;2.60;;
773;SDS011;370;48.810;9.150;2023-04-30T11:09:33;3.77;;;2.10;;
773;SDS011;370;48.810;9.150;2023-04-30T11:12:02;3.67;;;2.60;;
773;SDS011;370;48.810;9.150;2023-04-30T11:14:31;3.60;;;2.70;;
773;SDS011;370;48.810;9.150;2023-04-30T11:16:59;3.50;;;2.60;;
773;SDS011;370;48.810;9.150;2023-04-30T11:19:26;2.67;;;2.20;;
773;SDS011;370;48.810;9.150;2023-04-30T11:24:50;5.57;;;2.00;;
773;SDS011;370;48.810;9.150;2023-04-30T11:27:30;4.37;;;2.50;;
773;SDS011;370;48.810;9.150;2023-04-30T11:29:59;4.90;;;2.20;;
773;SDS011;370;48.810;9.150;2023-04-30T11:32:31;6.63;;;2.40;;
773;SDS011;370;48.810;9.150;2023-04-30T11:34:59;3.40;;;2.60;;
773;SDS011;370;48.810;9.150;2023-04-30T11:37:29;3.00;;;2.37;;
773;SDS011;370;48.810;9.150;2023-04-30T11:39:57;2.90;;;2.63;;
773;SDS011;370;48.810;9.150;2023-04-30T11:42:26;2.47;;;2.10;;
773;SDS011;370;48.810;9.150;2023-04-30T11:45:02;5.47;;;2.73;;
773;SDS011;370;48.810;9.150;2023-04-30T11:47:37;3.53;;;2.60;;
773;SDS011;370;48.810;9.150;2023-04-30T11:50:06;2.77;;;2.10;;
773;SDS011;370;48.810;9.150;2023-04-30T11:52:33;4.20;;;2.10;;
773;SDS011;370;48.810;9.150;2023-04-30T11:55:01;2.87;;;2.10;;
773;SDS011;370;48.810;9.150;2023-04-30T11:57:33;1.83;;;1.73;;
773;SDS011;370;48.810;9.150;2023-04-30T12:00:12;3.03;;;2.43;;
773;SDS011;370;48.810;9.150;2023-04-30T12:02:40;7.10;;;2.50;;
773;SDS011;370;48.810;9.150;2023-04-30T12:05:12;3.10;;;2.73;;
773;SDS011;370;48.810;9.150;2023-04-30T12:07:45;2.97;;;2.47;;
773;SDS011;370;48.810;9.150;2023-04-30T12:10:12;2.20;;;2.07;;
773;SDS011;370;48.810;9.150;2023-04-30T12:12:40;2.67;;;2.40;;
773;SDS011;370;48.810;9.150;2023-04-30T12:15:16;6.20;;;2.07;;
773;SDS011;370;48.810;9.150;2023-04-30T12:17:43;6.93;;;2.80;;
773;SDS011;370;48.810;9.150;2023-04-30T12:20:11;2.53;;;2.33;;
773;SDS011;370;48.810;9.150;2023-04-30T12:22:40;3.53;;;2.27;;
773;SDS011;370;48.810;9.150;2023-04-30T12:25:08;3.20;;;2.60;;
773;SDS011;370;48.810;9.150;2023-04-30T12:27:38;3.53;;;2.40;;
773;SDS011;370;48.810;9.150;2023-04-30T12:30:06;2.23;;;2.03;;
773;SDS011;370;48.810;9.150;2023-04-30T12:32:39;2.80;;;2.33;;
773;SDS011;370;48.810;9.150;2023-04-30T12:35:07;2.40;;;1.83;;
773;SDS011;370;48.810;9.150;2023-04-30T12:37:40;4.13;;;2.23;;
773;SDS011;370;48.810;9.150;2023-04-30T12:40:08;3.03;;;2.53;;
773;SDS011;370;48.810;9.150;2023-04-30T12:42:36;3.23;;;1.83;;
773;SDS011;370;48.810;9.150;2023-04-30T12:45:03;15.53;;;2.30;;
773;SDS011;370;48.810;9.150;2023-04-30T12:47:31;3.60;;;1.70;;
773;SDS011;370;48.810;9.150;2023-04-30T12:49:59;2.67;;;2.20;;
773;SDS011;370;48.810;9.150;2023-04-30T12:52:26;2.30;;;2.10;;
773;SDS011;370;48.810;9.150;2023-04-30T12:54:53;5.63;;;2.10;;
773;SDS011;370;48.810;9.150;2023-04-30T12:57:20;3.00;;;2.23;;
773;SDS011;370;48.810;9.150;2023-04-30T12:59:56;1.90;;;1.80;;
773;SDS011;370;48.810;9.150;2023-04-30T13:02:24;4.10;;;1.97;;
773;SDS011;370;48.810;9.150;2023-04-30T13:04:52;4.43;;;2.20;;
773;SDS011;370;48.810;9.150;2023-04-30T13:07:21;4.40;;;2.20;;
773;SDS011;370;48.810;9.150;2023-04-30T13:09:47;3.73;;;2.60;;
773;SDS011;370;48.810;9.150;2023-04-30T13:12:14;4.23;;;2.20;;
773;SDS011;370;48.810;9.150;2023-04-30T13:14:41;7.93;;;3.10;;
773;SDS011;370;48.810;9.150;2023-04-30T13:17:08;3.30;;;2.43;;
773;SDS011;370;48.810;9.150;2023-04-30T13:19:37;2.37;;;2.17;;
773;SDS011;370;48.810;9.150;2023-04-30T13:22:04;3.27;;;2.20;;
773;SDS011;370;48.810;9.150;2023-04-30T13:24:32;2.43;;;2.27;;
773;SDS011;370;48.810;9.150;2023-04-30T13:26:59;3.10;;;2.40;;
773;SDS011;370;48.810;9.150;2023-04-30T13:29:26;3.30;;;1.87;;
773;SDS011;370;48.810;9.150;2023-04-30T13:31:53;3.27;;;2.20;;
773;SDS011;370;48.810;9.150;2023-04-30T13:34:20;3.70;;;2.47;;
773;SDS011;370;48.810;9.150;2023-04-30T13:36:47;3.10;;;2.23;;
773;SDS011;370;48.810;9.150;2023-04-30T13:39:14;2.57;;;2.20;;
773;SDS011;370;48.810;9.150;2023-04-30T13:41:42;2.33;;;2.10;;
773;SDS011;370;48.810;9.150;2023-04-30T13:44:09;2.87;;;2.40;;
773;SDS011;370;48.810;9.150;2023-04-30T13:46:36;2.60;;;2.23;;
773;SDS011;370;48.810;9.150;2023-04-30T13:49:03;2.37;;;2.17;;
773;SDS011;370;48.810;9.150;2023-04-30T13:51:30;2.57;;;2.33;;
773;SDS011;370;48.810;9.150;2023-04-30T13:53:57;9.50;;;2.10;;
773;SDS011;370;48.810;9.150;2023-04-30T13:56:23;2.33;;;2.07;;
773;SDS011;370;48.810;9.150;2023-04-30T13:58:52;2.00;;;1.80;;
773;SDS011;370;48.810;9.150;2023-04-30T14:01:18;2.60;;;1.90;;
773;SDS011;370;48.810;9.150;2023-04-30T14:03:45;4.07;;;2.50;;
773;SDS011;370;48.810;9.150;2023-04-30T14:06:12;7.10;;;2.10;;
773;SDS011;370;48.810;9.150;2023-04-30T14:08:39;3.73;;;1.83;;
773;SDS011;370;48.810;9.150;2023-04-30T14:11:06;2.00;;;1.80;;
773;SDS011;370;48.810;9.150;2023-04-30T14:13:32;4.30;;;2.00;;
773;SDS011;370;48.810;9.150;2023-04-30T14:16:01;10.10;;;2.30;;
773;SDS011;370;48.810;9.150;2023-04-30T14:18:27;1.87;;;1.77;;
773;SDS011;370;48.810;9.150;2023-04-30T14:20:54;4.00;;;2.37;;
773;SDS011;370;48.810;9.150;2023-04-30T14:23:21;3.47;;;2.03;;
773;SDS011;370;48.810;9.150;2023-04-30T14:25:48;2.47;;;1.97;;
773;SDS011;370;48.810;9.150;2023-04-30T14:28:15;2.27;;;1.80;;
773;SDS011;370;48.810;9.150;2023-04-30T14:30:42;2.30;;;2.10;;
773;SDS011;370;48.810;9.150;2023-04-30T14:33:10;2.40;;;2.20;;
773;SDS011;370;48.810;9.150;2023-04-30T14:35:37;2.53;;;2.37;;
773;SDS011;370;48.810;9.150;2023-04-30T14:38:05;1.73;;;1.63;;
773;SDS011;370;48.810;9.150;2023-04-30T14:40:32;2.10;;;1.87;;
773;SDS011;370;48.810;9.150;2023-04-30T14:42:59;2.40;;;1.70;;
773;SDS011;370;48.810;9.150;2023-04-30T14:45:26;2.50;;;2.17;;
773;SDS011;370;48.810;9.150;2023-04-30T14:47:53;3.03;;;1.97;;
773;SDS011;370;48.810;9.150;2023-04-30T14:50:21;6.23;;;2.63;;
773;SDS011;370;48.810;9.150;2023-04-30T14:52:48;5.40;;;1.90;;
773;SDS011;370;48.810;9.150;2023-04-30T14:55:15;3.30;;;2.00;;
773;SDS011;370;48.810;9.150;2023-04-30T14:57:41;4.23;;;2.20;;
773;SDS011;370;48.810;9.150;2023-04-30T15:00:09;2.50;;;1.83;;
773;SDS011;370;48.810;9.150;2023-04-30T15:02:37;5.53;;;2.47;;
773;SDS011;370;48.810;9.150;2023-04-30T15:05:04;2.30;;;1.87;;
773;SDS011;370;48.810;9.150;2023-04-30T15:07:33;3.10;;;2.00;;
773;SDS011;370;48.810;9.150;2023-04-30T15:10:00;2.50;;;1.80;;
773;SDS011;370;48.810;9.150;2023-04-30T15:12:27;4.03;;;2.20;;
773;SDS011;370;48.810;9.150;2023-04-30T15:14:54;6.33;;;2.47;;
773;SDS011;370;48.810;9.150;2023-04-30T15:17:21;4.17;;;2.03;;
773;SDS011;370;48.810;9.150;2023-04-30T15:19:48;2.10;;;1.83;;
773;SDS011;370;48.810;9.150;2023-04-30T15:22:15;2.00;;;1.80;;
773;SDS011;370;48.810;9.150;2023-04-30T15:24:43;4.20;;;2.17;;
773;SDS011;370;48.810;9.150;2023-04-30T15:27:10;4.47;;;2.23;;
773;SDS011;370;48.810;9.150;2023-04-30T15:29:37;3.97;;;1.90;;
773;SDS011;370;48.810;9.150;2023-04-30T15:32:04;3.67;;;2.00;;
773;SDS011;370;48.810;9.150;2023-04-30T15:34:31;3.50;;;2.07;;
773;SDS011;370;48.810;9.150;2023-04-30T15:36:58;1.83;;;1.80;;
773;SDS011;370;48.810;9.150;2023-04-30T15:39:24;4.03;;;2.13;;
773;SDS011;370;48.810;9.150;2023-04-30T15:41:53;1.83;;;1.73;;
773;SDS011;370;48.810;9.150;2023-04-30T15:44:19;4.10;;;2.53;;
773;SDS011;370;48.810;9.150;2023-04-30T15:46:46;4.20;;;2.30;;
773;SDS011;370;48.810;9.150;2023-04-30T15:49:13;2.33;;;1.90;;
773;SDS011;370;48.810;9.150;2023-04-30T15:51:40;2.17;;;1.83;;
773;SDS011;370;48.810;9.150;2023-04-30T15:54:09;2.50;;;2.03;;
773;SDS011;370;48.810;9.150;2023-04-30T15:56:37;1.63;;;1.53;;
773;SDS011;370;48.810;9.150;2023-04-30T15:59:05;1.90;;;1.80;;
773;SDS011;370;48.810;9.150;2023-04-30T16:01:32;5.87;;;2.07;;
773;SDS011;370;48.810;9.150;2023-04-30T16:03:59;2.30;;;2.10;;
773;SDS011;370;48.810;9.150;2023-04-30T16:06:26;2.10;;;1.80;;
773;SDS011;370;48.810;9.150;2023-04-30T16:08:56;4.50;;;2.33;;